Impacts TAF Board
For situational awareness. Not to be used for flight planning purposes.
IDs:

KLCH - Lake Charles Rgnl, LA, US

Issued at 0520 UTC 18 Sep 2021
Updated at 0825 UTC 18 Sep 2021
Potential Impact None Slight Moderate High
Time0753Z 18/09Z 18/10Z 18/11Z 18/12Z 18/13Z 18/14Z 18/15Z 18/16Z 18/17Z 18/18Z 18/19Z 18/20Z 18/21Z>>
Type OBS PRVL
  [TEMP]  
PRVL
  [TEMP]  
PRVL
  [TEMP]  
PRVL
  [TEMP]  
PRVL
  [TEMP]  
PRVL PRVL PRVL PRVL PRVL
  [PRB30]  
PRVL
  [PRB30]  
PRVL
  [PRB30]  
PRVL
  [PRB30]  
VIS 10 >6
  [4]  
>6
  [4]  
>6
  [4]  
>6
  [4]  
>6
  [4]  
>6 >6 >6 >6 >6
  [4]  
>6
  [4]  
>6
  [4]  
>6
  [4]  
CIG 46 250
  [250]  
--
  [--]  
--
  [--]  
--
  [--]  
--
  [--]  
-- -- -- 40 40
  [25]  
40
  [25]  
40
  [25]  
40
  [25]  
Cover OVC OVC
  [SCT]  
SCT
  [FEW]  
SCT
  [FEW]  
SCT
  [FEW]  
SCT
  [FEW]  
SCT SCT SCT BKN BKN
  [OVC]  
BKN
  [OVC]  
BKN
  [OVC]  
BKN
  [OVC]  
FltCat VFR VFR
  [MVFR]  
VFR
  [MVFR]  
VFR
  [MVFR]  
VFR
  [MVFR]  
VFR
  [MVFR]  
VFR VFR VFR VFR VFR
  [MVFR]  
VFR
  [MVFR]  
VFR
  [MVFR]  
VFR
  [MVFR]  
WX -- --
  [BR]  
--
  [BR]  
--
  [BR]  
--
  [BR]  
--
  [BR]  
-- -- -- -- --
  [TSRA BR]  
--
  [TSRA BR]  
--
  [TSRA BR]  
--
  [TSRA BR]  
WDir VRB VRB
[VRB]
VRB
[VRB]
VRB
[VRB]
VRB
[VRB]
VRB
[VRB]
10 10 10 170 170
[170]
170
[170]
170
[170]
170
[170]
WSpd 0 5
  [5]  
0
  [0]  
0
  [0]  
0
  [0]  
0
  [0]  
2 2 2 4 4
  [4]  
4
  [4]  
4
  [4]  
4
  [4]  
WGst -- --
  [--]  
--
  [--]  
--
  [--]  
--
  [--]  
--
  [--]  
-- -- -- -- --
  [--]  
--
  [--]  
--
  [--]  
--
  [--]  
Raw TAF
KLCH 180520Z 1806/1906 VRB05KT P6SM SCT045 OVC250
  TEMPO 1806/1810 4SM BR SCT015
  FM181000 00000KT P6SM SCT040
  TEMPO 1810/1814 4SM BR FEW029
  FM181400 01002KT P6SM SCT015
  FM181700 17004KT P6SM BKN040
  PROB30 1818/1822 4SM TSRA BR OVC025CB


Raw METAR
KLCH 180753Z AUTO 00000KT 10SM OVC046 26/24 A2999 RMK AO2 SLP161 T02560244
KLCH 180653Z AUTO 20003KT 10SM FEW028 SCT045 25/24 A2998 RMK AO2 SLP159 T02500239
KLCH 180553Z AUTO 20003KT 10SM CLR 25/24 A2998 RMK AO2 SLP159 T02500244 10278 20239 403060233 52005

METAR Board
Radar Display
Forecast Discussion
For situational awareness. Not to be used for flight planning purposes.